sensor_id;sensor_type;location;lat;lon;timestamp;P1;durP1;ratioP1;P2;durP2;ratioP2
11427;SDS011;5770;44.504;11.346;2022-07-05T00:00:21;9.77;;;3.58;;
11427;SDS011;5770;44.504;11.346;2022-07-05T00:02:48;5.05;;;3.03;;
11427;SDS011;5770;44.504;11.346;2022-07-05T00:05:15;4.15;;;2.97;;
11427;SDS011;5770;44.504;11.346;2022-07-05T00:07:42;7.97;;;3.15;;
11427;SDS011;5770;44.504;11.346;2022-07-05T00:10:09;18.42;;;3.28;;
11427;SDS011;5770;44.504;11.346;2022-07-05T00:12:36;10.70;;;3.20;;
11427;SDS011;5770;44.504;11.346;2022-07-05T00:15:04;6.13;;;3.25;;
11427;SDS011;5770;44.504;11.346;2022-07-05T00:17:32;8.95;;;3.30;;
11427;SDS011;5770;44.504;11.346;2022-07-05T00:20:00;10.05;;;3.17;;
11427;SDS011;5770;44.504;11.346;2022-07-05T00:22:27;7.80;;;3.47;;
11427;SDS011;5770;44.504;11.346;2022-07-05T00:24:54;8.27;;;3.30;;
11427;SDS011;5770;44.504;11.346;2022-07-05T00:27:21;8.82;;;2.78;;
11427;SDS011;5770;44.504;11.346;2022-07-05T00:29:48;6.35;;;3.10;;
11427;SDS011;5770;44.504;11.346;2022-07-05T00:32:15;8.18;;;3.10;;
11427;SDS011;5770;44.504;11.346;2022-07-05T00:34:44;10.02;;;2.83;;
11427;SDS011;5770;44.504;11.346;2022-07-05T00:37:11;6.53;;;3.08;;
11427;SDS011;5770;44.504;11.346;2022-07-05T00:39:38;5.85;;;3.00;;
11427;SDS011;5770;44.504;11.346;2022-07-05T00:42:05;4.28;;;2.50;;
11427;SDS011;5770;44.504;11.346;2022-07-05T00:44:33;10.15;;;3.10;;
11427;SDS011;5770;44.504;11.346;2022-07-05T00:47:01;29.75;;;4.53;;
11427;SDS011;5770;44.504;11.346;2022-07-05T00:49:29;6.25;;;2.80;;
11427;SDS011;5770;44.504;11.346;2022-07-05T00:51:58;6.97;;;2.88;;
11427;SDS011;5770;44.504;11.346;2022-07-05T00:54:26;7.18;;;3.28;;
11427;SDS011;5770;44.504;11.346;2022-07-05T00:56:53;8.48;;;3.33;;
11427;SDS011;5770;44.504;11.346;2022-07-05T00:59:21;5.50;;;2.78;;
11427;SDS011;5770;44.504;11.346;2022-07-05T01:01:48;10.13;;;3.00;;
11427;SDS011;5770;44.504;11.346;2022-07-05T01:04:15;5.53;;;3.00;;
11427;SDS011;5770;44.504;11.346;2022-07-05T01:06:43;6.72;;;3.05;;
11427;SDS011;5770;44.504;11.346;2022-07-05T01:09:14;6.88;;;3.00;;
11427;SDS011;5770;44.504;11.346;2022-07-05T01:11:42;7.50;;;3.33;;
11427;SDS011;5770;44.504;11.346;2022-07-05T01:14:10;6.95;;;3.83;;
11427;SDS011;5770;44.504;11.346;2022-07-05T01:16:41;5.35;;;3.03;;
11427;SDS011;5770;44.504;11.346;2022-07-05T01:19:09;9.55;;;3.60;;
11427;SDS011;5770;44.504;11.346;2022-07-05T01:21:39;7.95;;;3.55;;
11427;SDS011;5770;44.504;11.346;2022-07-05T01:24:07;6.85;;;3.38;;
11427;SDS011;5770;44.504;11.346;2022-07-05T01:26:36;9.43;;;3.78;;
11427;SDS011;5770;44.504;11.346;2022-07-05T01:29:03;11.93;;;4.00;;
11427;SDS011;5770;44.504;11.346;2022-07-05T01:31:30;8.82;;;3.30;;
11427;SDS011;5770;44.504;11.346;2022-07-05T01:33:58;10.88;;;4.07;;
11427;SDS011;5770;44.504;11.346;2022-07-05T01:36:25;10.60;;;4.00;;
11427;SDS011;5770;44.504;11.346;2022-07-05T01:38:53;5.65;;;3.70;;
11427;SDS011;5770;44.504;11.346;2022-07-05T01:41:21;8.27;;;3.90;;
11427;SDS011;5770;44.504;11.346;2022-07-05T01:43:48;8.07;;;3.40;;
11427;SDS011;5770;44.504;11.346;2022-07-05T01:46:15;9.15;;;3.80;;
11427;SDS011;5770;44.504;11.346;2022-07-05T01:48:45;8.13;;;3.25;;
11427;SDS011;5770;44.504;11.346;2022-07-05T01:51:15;8.73;;;3.33;;
11427;SDS011;5770;44.504;11.346;2022-07-05T01:53:47;9.07;;;3.10;;
11427;SDS011;5770;44.504;11.346;2022-07-05T01:56:17;7.90;;;3.45;;
11427;SDS011;5770;44.504;11.346;2022-07-05T01:58:46;13.02;;;3.40;;
11427;SDS011;5770;44.504;11.346;2022-07-05T02:01:14;6.65;;;3.25;;
11427;SDS011;5770;44.504;11.346;2022-07-05T02:03:41;9.75;;;3.55;;
11427;SDS011;5770;44.504;11.346;2022-07-05T02:06:09;6.50;;;3.38;;
11427;SDS011;5770;44.504;11.346;2022-07-05T02:08:36;10.02;;;3.20;;
11427;SDS011;5770;44.504;11.346;2022-07-05T02:11:04;8.93;;;3.08;;
11427;SDS011;5770;44.504;11.346;2022-07-05T02:13:31;11.00;;;3.65;;
11427;SDS011;5770;44.504;11.346;2022-07-05T02:15:59;8.98;;;3.30;;
11427;SDS011;5770;44.504;11.346;2022-07-05T02:18:26;7.55;;;3.25;;
11427;SDS011;5770;44.504;11.346;2022-07-05T02:20:54;5.57;;;3.50;;
11427;SDS011;5770;44.504;11.346;2022-07-05T02:23:21;11.55;;;3.40;;
11427;SDS011;5770;44.504;11.346;2022-07-05T02:25:48;6.40;;;3.22;;
11427;SDS011;5770;44.504;11.346;2022-07-05T02:28:17;7.72;;;3.72;;
11427;SDS011;5770;44.504;11.346;2022-07-05T02:30:44;10.35;;;3.38;;
11427;SDS011;5770;44.504;11.346;2022-07-05T02:33:13;6.85;;;3.78;;
11427;SDS011;5770;44.504;11.346;2022-07-05T02:35:40;6.82;;;3.10;;
11427;SDS011;5770;44.504;11.346;2022-07-05T02:38:07;6.72;;;3.88;;
11427;SDS011;5770;44.504;11.346;2022-07-05T02:40:34;7.07;;;3.50;;
11427;SDS011;5770;44.504;11.346;2022-07-05T02:43:01;9.30;;;3.70;;
11427;SDS011;5770;44.504;11.346;2022-07-05T02:45:28;8.63;;;3.70;;
11427;SDS011;5770;44.504;11.346;2022-07-05T02:47:58;7.80;;;3.78;;
11427;SDS011;5770;44.504;11.346;2022-07-05T02:50:27;7.22;;;3.28;;
11427;SDS011;5770;44.504;11.346;2022-07-05T02:52:54;10.23;;;3.60;;
11427;SDS011;5770;44.504;11.346;2022-07-05T02:55:21;5.43;;;3.35;;
11427;SDS011;5770;44.504;11.346;2022-07-05T02:57:48;8.60;;;3.13;;
11427;SDS011;5770;44.504;11.346;2022-07-05T03:00:15;9.45;;;3.22;;
11427;SDS011;5770;44.504;11.346;2022-07-05T03:02:42;4.50;;;2.67;;
11427;SDS011;5770;44.504;11.346;2022-07-05T03:05:09;5.63;;;2.80;;
11427;SDS011;5770;44.504;11.346;2022-07-05T03:07:37;10.35;;;3.00;;
11427;SDS011;5770;44.504;11.346;2022-07-05T03:10:05;7.68;;;3.10;;
11427;SDS011;5770;44.504;11.346;2022-07-05T03:12:32;9.40;;;3.05;;
11427;SDS011;5770;44.504;11.346;2022-07-05T03:14:59;5.05;;;2.78;;
11427;SDS011;5770;44.504;11.346;2022-07-05T03:17:26;9.45;;;3.42;;
11427;SDS011;5770;44.504;11.346;2022-07-05T03:19:53;8.25;;;2.85;;
11427;SDS011;5770;44.504;11.346;2022-07-05T03:22:20;8.93;;;2.90;;
11427;SDS011;5770;44.504;11.346;2022-07-05T03:24:49;7.38;;;2.92;;
11427;SDS011;5770;44.504;11.346;2022-07-05T03:27:16;8.27;;;2.83;;
11427;SDS011;5770;44.504;11.346;2022-07-05T03:29:43;7.00;;;2.78;;
11427;SDS011;5770;44.504;11.346;2022-07-05T03:32:10;4.90;;;2.75;;
11427;SDS011;5770;44.504;11.346;2022-07-05T03:34:38;6.95;;;2.50;;
11427;SDS011;5770;44.504;11.346;2022-07-05T03:37:05;7.65;;;2.92;;
11427;SDS011;5770;44.504;11.346;2022-07-05T03:39:32;12.70;;;2.72;;
11427;SDS011;5770;44.504;11.346;2022-07-05T03:42:00;10.15;;;3.03;;
11427;SDS011;5770;44.504;11.346;2022-07-05T03:44:28;6.78;;;3.10;;
11427;SDS011;5770;44.504;11.346;2022-07-05T03:46:57;6.85;;;3.03;;
11427;SDS011;5770;44.504;11.346;2022-07-05T03:49:24;6.63;;;3.05;;
11427;SDS011;5770;44.504;11.346;2022-07-05T03:51:51;8.48;;;3.25;;
11427;SDS011;5770;44.504;11.346;2022-07-05T03:54:18;9.23;;;3.30;;
11427;SDS011;5770;44.504;11.346;2022-07-05T03:56:46;5.50;;;3.22;;
11427;SDS011;5770;44.504;11.346;2022-07-05T03:59:14;6.20;;;3.28;;
11427;SDS011;5770;44.504;11.346;2022-07-05T04:01:41;8.63;;;2.97;;
11427;SDS011;5770;44.504;11.346;2022-07-05T04:04:08;10.63;;;3.42;;
11427;SDS011;5770;44.504;11.346;2022-07-05T04:06:35;11.20;;;3.42;;
11427;SDS011;5770;44.504;11.346;2022-07-05T04:09:02;5.57;;;3.28;;
11427;SDS011;5770;44.504;11.346;2022-07-05T04:11:29;6.78;;;2.90;;
11427;SDS011;5770;44.504;11.346;2022-07-05T04:13:57;9.65;;;3.67;;
11427;SDS011;5770;44.504;11.346;2022-07-05T04:16:25;15.60;;;3.50;;
11427;SDS011;5770;44.504;11.346;2022-07-05T04:18:52;10.18;;;3.70;;
11427;SDS011;5770;44.504;11.346;2022-07-05T04:21:19;9.23;;;3.38;;
11427;SDS011;5770;44.504;11.346;2022-07-05T04:23:46;8.18;;;3.15;;
11427;SDS011;5770;44.504;11.346;2022-07-05T04:26:13;8.38;;;3.88;;
11427;SDS011;5770;44.504;11.346;2022-07-05T04:28:40;7.30;;;3.47;;
11427;SDS011;5770;44.504;11.346;2022-07-05T04:31:07;10.32;;;3.72;;
11427;SDS011;5770;44.504;11.346;2022-07-05T04:33:36;6.70;;;3.33;;
11427;SDS011;5770;44.504;11.346;2022-07-05T04:36:03;7.78;;;3.10;;
11427;SDS011;5770;44.504;11.346;2022-07-05T04:38:30;5.60;;;3.53;;
11427;SDS011;5770;44.504;11.346;2022-07-05T04:40:58;10.50;;;3.50;;
11427;SDS011;5770;44.504;11.346;2022-07-05T04:43:25;10.15;;;3.42;;
11427;SDS011;5770;44.504;11.346;2022-07-05T04:45:52;8.48;;;3.08;;
11427;SDS011;5770;44.504;11.346;2022-07-05T04:48:19;6.03;;;3.00;;
11427;SDS011;5770;44.504;11.346;2022-07-05T04:50:47;5.90;;;3.22;;
11427;SDS011;5770;44.504;11.346;2022-07-05T04:53:14;8.43;;;3.13;;
11427;SDS011;5770;44.504;11.346;2022-07-05T04:55:41;8.25;;;3.35;;
11427;SDS011;5770;44.504;11.346;2022-07-05T04:58:08;13.93;;;3.47;;
11427;SDS011;5770;44.504;11.346;2022-07-05T05:00:36;6.43;;;3.28;;
11427;SDS011;5770;44.504;11.346;2022-07-05T05:03:03;8.30;;;2.92;;
11427;SDS011;5770;44.504;11.346;2022-07-05T05:05:30;9.13;;;3.20;;
11427;SDS011;5770;44.504;11.346;2022-07-05T05:07:59;8.98;;;3.30;;
11427;SDS011;5770;44.504;11.346;2022-07-05T05:10:26;4.43;;;3.03;;
11427;SDS011;5770;44.504;11.346;2022-07-05T05:12:53;5.70;;;3.15;;
11427;SDS011;5770;44.504;11.346;2022-07-05T05:15:21;9.10;;;2.92;;
11427;SDS011;5770;44.504;11.346;2022-07-05T05:17:48;6.82;;;2.72;;
11427;SDS011;5770;44.504;11.346;2022-07-05T05:20:16;5.20;;;2.80;;
11427;SDS011;5770;44.504;11.346;2022-07-05T05:22:43;12.48;;;2.92;;
11427;SDS011;5770;44.504;11.346;2022-07-05T05:25:12;10.15;;;3.20;;
11427;SDS011;5770;44.504;11.346;2022-07-05T05:27:40;4.97;;;2.97;;
11427;SDS011;5770;44.504;11.346;2022-07-05T05:30:09;7.10;;;3.20;;
11427;SDS011;5770;44.504;11.346;2022-07-05T05:32:37;7.70;;;2.90;;
11427;SDS011;5770;44.504;11.346;2022-07-05T05:35:05;8.85;;;3.30;;
11427;SDS011;5770;44.504;11.346;2022-07-05T05:37:44;5.72;;;3.10;;
11427;SDS011;5770;44.504;11.346;2022-07-05T05:40:14;9.55;;;3.30;;
11427;SDS011;5770;44.504;11.346;2022-07-05T05:42:41;8.00;;;3.20;;
11427;SDS011;5770;44.504;11.346;2022-07-05T05:45:09;6.38;;;2.92;;
11427;SDS011;5770;44.504;11.346;2022-07-05T05:47:46;7.90;;;3.05;;
11427;SDS011;5770;44.504;11.346;2022-07-05T05:50:17;6.93;;;2.65;;
11427;SDS011;5770;44.504;11.346;2022-07-05T05:52:45;6.50;;;2.80;;
11427;SDS011;5770;44.504;11.346;2022-07-05T05:55:12;6.00;;;2.58;;
11427;SDS011;5770;44.504;11.346;2022-07-05T05:57:40;7.70;;;3.10;;
11427;SDS011;5770;44.504;11.346;2022-07-05T06:00:08;6.43;;;2.97;;
11427;SDS011;5770;44.504;11.346;2022-07-05T06:02:36;6.93;;;3.05;;
11427;SDS011;5770;44.504;11.346;2022-07-05T06:05:04;8.75;;;3.20;;
11427;SDS011;5770;44.504;11.346;2022-07-05T06:07:31;5.45;;;3.22;;
11427;SDS011;5770;44.504;11.346;2022-07-05T06:10:10;6.43;;;2.95;;
11427;SDS011;5770;44.504;11.346;2022-07-05T06:12:37;9.23;;;3.20;;
11427;SDS011;5770;44.504;11.346;2022-07-05T06:15:06;9.10;;;3.05;;
11427;SDS011;5770;44.504;11.346;2022-07-05T06:17:35;6.72;;;2.90;;
11427;SDS011;5770;44.504;11.346;2022-07-05T06:20:04;5.28;;;2.97;;
11427;SDS011;5770;44.504;11.346;2022-07-05T06:22:31;9.55;;;2.80;;
11427;SDS011;5770;44.504;11.346;2022-07-05T06:24:58;8.70;;;3.05;;
11427;SDS011;5770;44.504;11.346;2022-07-05T06:27:26;5.63;;;3.13;;
11427;SDS011;5770;44.504;11.346;2022-07-05T06:29:53;6.28;;;2.70;;
11427;SDS011;5770;44.504;11.346;2022-07-05T06:32:21;5.35;;;3.13;;
11427;SDS011;5770;44.504;11.346;2022-07-05T06:34:49;7.38;;;2.92;;
11427;SDS011;5770;44.504;11.346;2022-07-05T06:37:16;5.20;;;2.53;;
11427;SDS011;5770;44.504;11.346;2022-07-05T06:39:43;8.30;;;2.92;;
11427;SDS011;5770;44.504;11.346;2022-07-05T06:42:10;7.07;;;2.70;;
11427;SDS011;5770;44.504;11.346;2022-07-05T06:44:37;6.25;;;2.92;;
11427;SDS011;5770;44.504;11.346;2022-07-05T06:47:04;6.65;;;2.80;;
11427;SDS011;5770;44.504;11.346;2022-07-05T06:49:33;11.10;;;2.75;;
11427;SDS011;5770;44.504;11.346;2022-07-05T06:52:00;5.07;;;2.95;;
11427;SDS011;5770;44.504;11.346;2022-07-05T06:54:27;6.47;;;2.70;;
11427;SDS011;5770;44.504;11.346;2022-07-05T06:56:55;4.93;;;2.70;;
11427;SDS011;5770;44.504;11.346;2022-07-05T06:59:22;8.88;;;2.90;;
11427;SDS011;5770;44.504;11.346;2022-07-05T07:01:49;5.47;;;2.53;;
11427;SDS011;5770;44.504;11.346;2022-07-05T07:04:16;3.92;;;2.40;;
11427;SDS011;5770;44.504;11.346;2022-07-05T07:06:48;6.47;;;2.70;;
11427;SDS011;5770;44.504;11.346;2022-07-05T07:09:18;7.65;;;2.70;;
11427;SDS011;5770;44.504;11.346;2022-07-05T07:11:47;8.43;;;3.20;;
11427;SDS011;5770;44.504;11.346;2022-07-05T07:14:14;5.38;;;2.78;;
11427;SDS011;5770;44.504;11.346;2022-07-05T07:16:45;9.57;;;3.13;;
11427;SDS011;5770;44.504;11.346;2022-07-05T07:19:24;6.38;;;2.90;;
11427;SDS011;5770;44.504;11.346;2022-07-05T07:21:56;8.15;;;2.97;;
11427;SDS011;5770;44.504;11.346;2022-07-05T07:24:23;7.25;;;3.15;;
11427;SDS011;5770;44.504;11.346;2022-07-05T07:26:50;8.98;;;3.25;;
11427;SDS011;5770;44.504;11.346;2022-07-05T07:29:30;7.63;;;3.25;;
11427;SDS011;5770;44.504;11.346;2022-07-05T07:31:58;11.18;;;3.28;;
11427;SDS011;5770;44.504;11.346;2022-07-05T07:34:25;4.68;;;3.00;;
11427;SDS011;5770;44.504;11.346;2022-07-05T07:36:58;8.35;;;3.28;;
11427;SDS011;5770;44.504;11.346;2022-07-05T07:39:27;4.32;;;2.60;;
11427;SDS011;5770;44.504;11.346;2022-07-05T07:41:54;8.43;;;3.70;;
11427;SDS011;5770;44.504;11.346;2022-07-05T07:44:21;12.80;;;3.33;;
11427;SDS011;5770;44.504;11.346;2022-07-05T07:46:49;8.68;;;3.33;;
11427;SDS011;5770;44.504;11.346;2022-07-05T07:49:16;3.58;;;2.50;;
11427;SDS011;5770;44.504;11.346;2022-07-05T07:51:43;6.35;;;3.17;;
11427;SDS011;5770;44.504;11.346;2022-07-05T07:54:12;6.07;;;2.67;;
11427;SDS011;5770;44.504;11.346;2022-07-05T07:56:44;4.70;;;2.80;;
11427;SDS011;5770;44.504;11.346;2022-07-05T07:59:13;7.65;;;2.90;;
11427;SDS011;5770;44.504;11.346;2022-07-05T08:01:41;5.30;;;3.13;;
11427;SDS011;5770;44.504;11.346;2022-07-05T08:04:08;6.60;;;3.00;;
11427;SDS011;5770;44.504;11.346;2022-07-05T08:06:36;8.60;;;3.15;;
11427;SDS011;5770;44.504;11.346;2022-07-05T08:09:03;5.68;;;2.92;;
11427;SDS011;5770;44.504;11.346;2022-07-05T08:11:33;6.82;;;2.70;;
11427;SDS011;5770;44.504;11.346;2022-07-05T08:14:00;4.50;;;2.40;;
11427;SDS011;5770;44.504;11.346;2022-07-05T08:16:30;8.75;;;2.72;;
11427;SDS011;5770;44.504;11.346;2022-07-05T08:18:57;5.40;;;2.67;;
11427;SDS011;5770;44.504;11.346;2022-07-05T08:21:42;7.35;;;2.85;;
11427;SDS011;5770;44.504;11.346;2022-07-05T08:24:10;6.00;;;2.80;;
11427;SDS011;5770;44.504;11.346;2022-07-05T08:26:42;7.07;;;2.60;;
11427;SDS011;5770;44.504;11.346;2022-07-05T08:29:10;4.20;;;2.75;;
11427;SDS011;5770;44.504;11.346;2022-07-05T08:31:41;6.85;;;2.80;;
11427;SDS011;5770;44.504;11.346;2022-07-05T08:34:09;5.68;;;2.80;;
11427;SDS011;5770;44.504;11.346;2022-07-05T08:36:37;5.25;;;2.60;;
11427;SDS011;5770;44.504;11.346;2022-07-05T08:39:05;6.40;;;3.20;;
11427;SDS011;5770;44.504;11.346;2022-07-05T08:41:34;6.93;;;2.78;;
11427;SDS011;5770;44.504;11.346;2022-07-05T08:44:04;4.00;;;2.75;;
11427;SDS011;5770;44.504;11.346;2022-07-05T08:46:32;5.85;;;2.83;;
11427;SDS011;5770;44.504;11.346;2022-07-05T08:49:01;3.05;;;2.30;;
11427;SDS011;5770;44.504;11.346;2022-07-05T08:51:30;6.80;;;2.40;;
11427;SDS011;5770;44.504;11.346;2022-07-05T08:54:00;7.25;;;2.25;;
11427;SDS011;5770;44.504;11.346;2022-07-05T08:56:28;6.72;;;2.50;;
11427;SDS011;5770;44.504;11.346;2022-07-05T08:58:58;7.88;;;2.50;;
11427;SDS011;5770;44.504;11.346;2022-07-05T09:01:30;5.65;;;2.70;;
11427;SDS011;5770;44.504;11.346;2022-07-05T09:04:03;6.38;;;2.30;;
11427;SDS011;5770;44.504;11.346;2022-07-05T09:06:34;5.68;;;2.90;;
11427;SDS011;5770;44.504;11.346;2022-07-05T09:09:02;5.63;;;2.72;;
11427;SDS011;5770;44.504;11.346;2022-07-05T09:11:31;5.50;;;2.47;;
11427;SDS011;5770;44.504;11.346;2022-07-05T09:14:02;5.47;;;2.65;;
11427;SDS011;5770;44.504;11.346;2022-07-05T09:16:32;6.53;;;2.90;;
11427;SDS011;5770;44.504;11.346;2022-07-05T09:19:04;6.25;;;3.15;;
11427;SDS011;5770;44.504;11.346;2022-07-05T09:21:33;6.65;;;3.17;;
11427;SDS011;5770;44.504;11.346;2022-07-05T09:24:01;7.70;;;3.05;;
11427;SDS011;5770;44.504;11.346;2022-07-05T09:26:32;7.00;;;4.68;;
11427;SDS011;5770;44.504;11.346;2022-07-05T09:29:00;5.45;;;2.50;;
11427;SDS011;5770;44.504;11.346;2022-07-05T09:31:29;3.60;;;3.03;;
11427;SDS011;5770;44.504;11.346;2022-07-05T09:34:05;4.88;;;2.95;;
11427;SDS011;5770;44.504;11.346;2022-07-05T09:36:49;9.77;;;4.78;;
11427;SDS011;5770;44.504;11.346;2022-07-05T09:39:16;5.40;;;3.08;;
11427;SDS011;5770;44.504;11.346;2022-07-05T09:41:43;9.85;;;2.55;;
11427;SDS011;5770;44.504;11.346;2022-07-05T09:44:25;8.32;;;3.47;;
11427;SDS011;5770;44.504;11.346;2022-07-05T09:49:37;4.25;;;2.70;;
11427;SDS011;5770;44.504;11.346;2022-07-05T09:52:07;7.05;;;3.67;;
11427;SDS011;5770;44.504;11.346;2022-07-05T09:54:38;10.55;;;2.83;;
11427;SDS011;5770;44.504;11.346;2022-07-05T09:57:05;6.20;;;2.90;;
11427;SDS011;5770;44.504;11.346;2022-07-05T09:59:34;4.38;;;2.63;;
11427;SDS011;5770;44.504;11.346;2022-07-05T10:02:01;4.43;;;2.38;;
11427;SDS011;5770;44.504;11.346;2022-07-05T10:04:30;3.50;;;2.10;;
11427;SDS011;5770;44.504;11.346;2022-07-05T10:06:57;4.82;;;2.20;;
11427;SDS011;5770;44.504;11.346;2022-07-05T10:09:24;6.38;;;2.47;;
11427;SDS011;5770;44.504;11.346;2022-07-05T10:11:52;4.55;;;2.42;;
11427;SDS011;5770;44.504;11.346;2022-07-05T10:14:20;7.28;;;2.88;;
11427;SDS011;5770;44.504;11.346;2022-07-05T10:16:52;3.83;;;2.00;;
11427;SDS011;5770;44.504;11.346;2022-07-05T10:19:28;3.78;;;2.22;;
11427;SDS011;5770;44.504;11.346;2022-07-05T10:22:00;3.67;;;2.47;;
11427;SDS011;5770;44.504;11.346;2022-07-05T10:24:32;8.45;;;2.30;;
11427;SDS011;5770;44.504;11.346;2022-07-05T10:27:01;4.00;;;2.17;;
11427;SDS011;5770;44.504;11.346;2022-07-05T10:29:31;4.80;;;2.22;;
11427;SDS011;5770;44.504;11.346;2022-07-05T10:32:00;11.50;;;2.20;;
11427;SDS011;5770;44.504;11.346;2022-07-05T10:34:29;7.78;;;1.90;;
11427;SDS011;5770;44.504;11.346;2022-07-05T10:37:01;8.60;;;1.95;;
11427;SDS011;5770;44.504;11.346;2022-07-05T10:39:29;10.52;;;2.20;;
11427;SDS011;5770;44.504;11.346;2022-07-05T10:41:58;4.55;;;1.98;;
11427;SDS011;5770;44.504;11.346;2022-07-05T10:44:25;3.85;;;1.80;;
11427;SDS011;5770;44.504;11.346;2022-07-05T10:47:06;6.80;;;2.13;;
11427;SDS011;5770;44.504;11.346;2022-07-05T10:49:36;3.00;;;2.22;;
11427;SDS011;5770;44.504;11.346;2022-07-05T10:52:04;3.53;;;2.00;;
11427;SDS011;5770;44.504;11.346;2022-07-05T10:57:44;2.55;;;2.00;;
11427;SDS011;5770;44.504;11.346;2022-07-05T11:00:47;5.78;;;1.88;;
11427;SDS011;5770;44.504;11.346;2022-07-05T11:03:34;3.90;;;2.25;;
11427;SDS011;5770;44.504;11.346;2022-07-05T11:06:04;4.05;;;1.90;;
11427;SDS011;5770;44.504;11.346;2022-07-05T11:08:40;2.40;;;1.95;;
11427;SDS011;5770;44.504;11.346;2022-07-05T11:11:41;3.10;;;2.05;;
11427;SDS011;5770;44.504;11.346;2022-07-05T11:17:09;3.78;;;1.90;;
11427;SDS011;5770;44.504;11.346;2022-07-05T11:22:26;6.80;;;2.50;;
11427;SDS011;5770;44.504;11.346;2022-07-05T11:24:53;5.47;;;2.65;;
11427;SDS011;5770;44.504;11.346;2022-07-05T11:27:21;4.95;;;2.30;;
11427;SDS011;5770;44.504;11.346;2022-07-05T11:29:49;3.67;;;2.40;;
11427;SDS011;5770;44.504;11.346;2022-07-05T11:32:17;3.97;;;2.42;;
11427;SDS011;5770;44.504;11.346;2022-07-05T11:34:47;3.65;;;2.28;;
11427;SDS011;5770;44.504;11.346;2022-07-05T11:37:18;5.90;;;2.42;;
11427;SDS011;5770;44.504;11.346;2022-07-05T11:42:32;5.07;;;2.05;;
11427;SDS011;5770;44.504;11.346;2022-07-05T11:45:00;3.42;;;2.22;;
11427;SDS011;5770;44.504;11.346;2022-07-05T11:47:27;3.10;;;2.22;;
11427;SDS011;5770;44.504;11.346;2022-07-05T11:49:57;5.88;;;1.92;;
11427;SDS011;5770;44.504;11.346;2022-07-05T11:52:28;6.40;;;2.15;;
11427;SDS011;5770;44.504;11.346;2022-07-05T11:54:55;4.95;;;2.20;;
11427;SDS011;5770;44.504;11.346;2022-07-05T11:57:23;3.90;;;2.10;;
11427;SDS011;5770;44.504;11.346;2022-07-05T11:59:52;4.93;;;1.90;;
11427;SDS011;5770;44.504;11.346;2022-07-05T12:02:19;2.65;;;2.35;;
11427;SDS011;5770;44.504;11.346;2022-07-05T12:04:48;4.25;;;2.35;;
11427;SDS011;5770;44.504;11.346;2022-07-05T12:07:25;2.08;;;1.90;;
11427;SDS011;5770;44.504;11.346;2022-07-05T12:09:52;2.97;;;1.98;;
11427;SDS011;5770;44.504;11.346;2022-07-05T12:12:37;2.67;;;2.00;;
11427;SDS011;5770;44.504;11.346;2022-07-05T12:15:14;3.05;;;2.25;;
11427;SDS011;5770;44.504;11.346;2022-07-05T12:17:45;4.88;;;2.10;;
11427;SDS011;5770;44.504;11.346;2022-07-05T12:20:21;6.57;;;2.65;;
11427;SDS011;5770;44.504;11.346;2022-07-05T12:22:49;3.13;;;2.40;;
11427;SDS011;5770;44.504;11.346;2022-07-05T12:25:18;5.22;;;1.95;;
11427;SDS011;5770;44.504;11.346;2022-07-05T12:27:47;4.25;;;1.90;;
11427;SDS011;5770;44.504;11.346;2022-07-05T12:30:20;3.75;;;1.98;;
11427;SDS011;5770;44.504;11.346;2022-07-05T12:32:54;7.75;;;2.00;;
11427;SDS011;5770;44.504;11.346;2022-07-05T12:35:31;3.83;;;1.95;;
11427;SDS011;5770;44.504;11.346;2022-07-05T12:38:06;3.05;;;1.80;;
11427;SDS011;5770;44.504;11.346;2022-07-05T12:40:34;2.33;;;1.90;;
11427;SDS011;5770;44.504;11.346;2022-07-05T12:43:04;4.65;;;2.17;;
11427;SDS011;5770;44.504;11.346;2022-07-05T12:45:34;3.08;;;1.95;;
11427;SDS011;5770;44.504;11.346;2022-07-05T12:48:02;3.25;;;2.00;;
11427;SDS011;5770;44.504;11.346;2022-07-05T12:50:44;4.40;;;1.80;;
11427;SDS011;5770;44.504;11.346;2022-07-05T12:53:13;2.20;;;2.00;;
11427;SDS011;5770;44.504;11.346;2022-07-05T12:56:03;2.90;;;1.75;;
11427;SDS011;5770;44.504;11.346;2022-07-05T12:58:49;3.95;;;2.00;;
11427;SDS011;5770;44.504;11.346;2022-07-05T13:04:05;2.40;;;2.10;;
11427;SDS011;5770;44.504;11.346;2022-07-05T13:06:45;4.40;;;2.00;;
11427;SDS011;5770;44.504;11.346;2022-07-05T13:09:29;7.55;;;2.20;;
11427;SDS011;5770;44.504;11.346;2022-07-05T13:12:07;5.57;;;2.28;;
11427;SDS011;5770;44.504;11.346;2022-07-05T13:14:36;4.90;;;2.25;;
11427;SDS011;5770;44.504;11.346;2022-07-05T13:17:07;4.25;;;2.10;;
11427;SDS011;5770;44.504;11.346;2022-07-05T13:19:39;5.15;;;2.10;;
11427;SDS011;5770;44.504;11.346;2022-07-05T13:22:12;4.70;;;2.10;;
11427;SDS011;5770;44.504;11.346;2022-07-05T13:24:42;4.50;;;2.00;;
11427;SDS011;5770;44.504;11.346;2022-07-05T13:27:10;4.15;;;2.13;;
11427;SDS011;5770;44.504;11.346;2022-07-05T13:29:39;4.13;;;2.00;;
11427;SDS011;5770;44.504;11.346;2022-07-05T13:32:08;3.55;;;2.08;;
11427;SDS011;5770;44.504;11.346;2022-07-05T13:35:04;5.90;;;2.40;;
11427;SDS011;5770;44.504;11.346;2022-07-05T13:37:31;3.63;;;2.08;;
11427;SDS011;5770;44.504;11.346;2022-07-05T13:40:07;4.07;;;1.90;;
11427;SDS011;5770;44.504;11.346;2022-07-05T13:42:39;4.38;;;2.03;;
11427;SDS011;5770;44.504;11.346;2022-07-05T13:45:25;6.53;;;1.70;;
11427;SDS011;5770;44.504;11.346;2022-07-05T13:48:06;2.95;;;2.00;;
11427;SDS011;5770;44.504;11.346;2022-07-05T13:50:34;4.97;;;2.60;;
11427;SDS011;5770;44.504;11.346;2022-07-05T13:53:05;3.30;;;2.20;;
11427;SDS011;5770;44.504;11.346;2022-07-05T13:55:42;8.93;;;2.55;;
11427;SDS011;5770;44.504;11.346;2022-07-05T13:58:22;5.25;;;2.17;;
11427;SDS011;5770;44.504;11.346;2022-07-05T14:00:56;5.32;;;1.90;;
11427;SDS011;5770;44.504;11.346;2022-07-05T14:03:24;6.20;;;1.80;;
11427;SDS011;5770;44.504;11.346;2022-07-05T14:05:52;9.32;;;2.28;;
11427;SDS011;5770;44.504;11.346;2022-07-05T14:08:19;9.27;;;2.50;;
11427;SDS011;5770;44.504;11.346;2022-07-05T14:10:47;7.22;;;2.25;;
11427;SDS011;5770;44.504;11.346;2022-07-05T14:13:17;5.70;;;2.20;;
11427;SDS011;5770;44.504;11.346;2022-07-05T14:15:44;7.28;;;2.17;;
11427;SDS011;5770;44.504;11.346;2022-07-05T14:18:12;7.10;;;2.15;;
11427;SDS011;5770;44.504;11.346;2022-07-05T14:20:42;8.13;;;2.42;;
11427;SDS011;5770;44.504;11.346;2022-07-05T14:23:09;7.53;;;2.20;;
11427;SDS011;5770;44.504;11.346;2022-07-05T14:25:37;10.68;;;2.55;;
11427;SDS011;5770;44.504;11.346;2022-07-05T14:28:04;8.13;;;2.63;;
11427;SDS011;5770;44.504;11.346;2022-07-05T14:30:34;3.45;;;2.17;;
11427;SDS011;5770;44.504;11.346;2022-07-05T14:33:01;11.65;;;2.58;;
11427;SDS011;5770;44.504;11.346;2022-07-05T14:35:28;6.00;;;2.40;;
11427;SDS011;5770;44.504;11.346;2022-07-05T14:38:00;8.40;;;2.40;;
11427;SDS011;5770;44.504;11.346;2022-07-05T14:40:35;6.75;;;2.28;;
11427;SDS011;5770;44.504;11.346;2022-07-05T14:43:04;17.65;;;2.75;;
11427;SDS011;5770;44.504;11.346;2022-07-05T14:45:31;11.18;;;2.65;;
11427;SDS011;5770;44.504;11.346;2022-07-05T14:47:59;6.82;;;2.65;;
11427;SDS011;5770;44.504;11.346;2022-07-05T14:50:26;8.60;;;2.38;;
11427;SDS011;5770;44.504;11.346;2022-07-05T14:53:02;7.93;;;2.63;;
11427;SDS011;5770;44.504;11.346;2022-07-05T14:55:37;4.00;;;2.25;;
11427;SDS011;5770;44.504;11.346;2022-07-05T14:58:05;9.43;;;2.55;;
11427;SDS011;5770;44.504;11.346;2022-07-05T15:00:32;6.88;;;2.45;;
11427;SDS011;5770;44.504;11.346;2022-07-05T15:02:59;5.18;;;2.40;;
11427;SDS011;5770;44.504;11.346;2022-07-05T15:05:27;6.65;;;2.38;;
11427;SDS011;5770;44.504;11.346;2022-07-05T15:07:56;9.52;;;2.60;;
11427;SDS011;5770;44.504;11.346;2022-07-05T15:10:24;5.25;;;2.20;;
11427;SDS011;5770;44.504;11.346;2022-07-05T15:12:54;6.13;;;3.05;;
11427;SDS011;5770;44.504;11.346;2022-07-05T15:15:21;7.05;;;2.60;;